createdAt,value
2023-05-03T00:01:44.135Z,102488.16
2023-05-03T00:04:10.979Z,102495.81
2023-05-03T00:06:37.594Z,102496.81
2023-05-03T00:09:04.385Z,102496.06
2023-05-03T00:11:30.910Z,102492.69
2023-05-03T00:13:57.526Z,102498.31
2023-05-03T00:16:24.129Z,102491.25
2023-05-03T00:18:50.762Z,102502.00
2023-05-03T00:21:17.403Z,102504.69
2023-05-03T00:23:44.089Z,102500.03
2023-05-03T00:26:10.872Z,102494.66
2023-05-03T00:28:37.562Z,102503.28
2023-05-03T00:31:11.028Z,102506.53
2023-05-03T00:33:38.893Z,102478.06
2023-05-03T00:36:09.466Z,102506.16
2023-05-03T00:38:36.641Z,102515.38
2023-05-03T00:41:03.519Z,102508.16
2023-05-03T00:43:30.123Z,102505.16
2023-05-03T00:46:08.275Z,102512.53
2023-05-03T00:48:42.454Z,102516.22
2023-05-03T00:51:13.078Z,102523.28
2023-05-03T00:53:40.472Z,102510.53
2023-05-03T00:56:07.457Z,102511.69
2023-05-03T00:58:36.369Z,102504.75
2023-05-03T01:01:03.378Z,102509.41
2023-05-03T01:03:29.997Z,102506.56
2023-05-03T01:06:13.582Z,102505.41
2023-05-03T01:09:10.768Z,102504.00
2023-05-03T01:12:14.142Z,102500.31
2023-05-03T01:14:49.699Z,102503.00
2023-05-03T01:17:20.085Z,102498.31
2023-05-03T01:19:54.603Z,102507.94
2023-05-03T01:22:34.160Z,102502.56
2023-05-03T01:25:12.038Z,102509.34
2023-05-03T01:27:40.455Z,102512.75
2023-05-03T01:30:11.594Z,102521.53
2023-05-03T01:32:41.128Z,102516.16
2023-05-03T01:35:29.349Z,102518.75
2023-05-03T01:37:57.568Z,102526.41
2023-05-03T01:40:28.022Z,102521.31
2023-05-03T01:42:56.619Z,102521.44
2023-05-03T01:45:23.424Z,102526.53
2023-05-03T01:47:50.037Z,102519.47
2023-05-03T01:50:17.713Z,102493.50
2023-05-03T01:52:45.288Z,102520.16
2023-05-03T01:55:11.960Z,102522.72
2023-05-03T01:57:38.514Z,102523.81
2023-05-03T02:00:05.759Z,102525.81
2023-05-03T02:02:32.566Z,102532.47
2023-05-03T02:04:59.323Z,102522.44
2023-05-03T02:07:25.982Z,102487.00
2023-05-03T02:09:52.532Z,102519.59
2023-05-03T02:12:19.121Z,102524.72
2023-05-03T02:14:45.693Z,102534.22
2023-05-03T02:17:12.392Z,102531.53
2023-05-03T02:19:39.072Z,102536.88
2023-05-03T02:22:05.921Z,102514.63
2023-05-03T02:24:36.089Z,102541.97
2023-05-03T02:27:06.184Z,102527.53
2023-05-03T02:29:32.862Z,102543.13
2023-05-03T02:31:59.437Z,102551.63
2023-05-03T02:34:27.263Z,102544.00
2023-05-03T02:36:53.937Z,102556.72
2023-05-03T02:39:20.618Z,102555.13
2023-05-03T02:41:47.906Z,102547.03
2023-05-03T02:44:14.658Z,102557.19
2023-05-03T02:46:42.196Z,102561.50
2023-05-03T02:49:09.503Z,102557.66
2023-05-03T02:51:36.366Z,102559.97
2023-05-03T02:54:03.441Z,102521.25
2023-05-03T02:56:30.014Z,102562.56
2023-05-03T02:58:57.527Z,102555.91
2023-05-03T03:01:24.322Z,102561.16
2023-05-03T03:03:51.074Z,102560.56
2023-05-03T03:06:17.755Z,102557.56
2023-05-03T03:08:44.291Z,102554.59
2023-05-03T03:11:10.951Z,102556.59
2023-05-03T03:13:39.843Z,102565.09
2023-05-03T03:18:37.650Z,102556.63
2023-05-03T03:21:04.507Z,102572.78
2023-05-03T03:23:31.255Z,102571.56
2023-05-03T03:25:57.847Z,102566.63
2023-05-03T03:28:24.461Z,102542.00
2023-05-03T03:30:51.176Z,102571.25
2023-05-03T03:33:17.938Z,102564.00
2023-05-03T03:35:44.710Z,102566.13
2023-05-03T03:38:11.325Z,102573.50
2023-05-03T03:40:37.963Z,102565.28
2023-05-03T03:43:04.490Z,102576.44
2023-05-03T03:45:31.069Z,102573.59
2023-05-03T03:47:58.295Z,102567.25
2023-05-03T03:50:26.141Z,102575.88
2023-05-03T03:52:52.760Z,102567.78
2023-05-03T03:55:19.450Z,102568.50
2023-05-03T03:57:46.184Z,102563.53
2023-05-03T04:00:13.306Z,102563.78
2023-05-03T04:02:40.027Z,102576.13
2023-05-03T04:05:08.094Z,102569.72
2023-05-03T04:07:34.684Z,102573.19
2023-05-03T04:10:01.641Z,102572.56
2023-05-03T04:12:28.475Z,102574.13
2023-05-03T04:14:57.285Z,102577.56
2023-05-03T04:17:23.898Z,102571.47
2023-05-03T04:19:50.608Z,102553.19
2023-05-03T04:22:17.164Z,102567.06
2023-05-03T04:24:43.970Z,102580.97
2023-05-03T04:27:11.437Z,102583.69
2023-05-03T04:29:38.643Z,102595.88
2023-05-03T04:32:14.202Z,102584.53
2023-05-03T04:34:42.924Z,102592.06
2023-05-03T04:37:15.179Z,102597.03
2023-05-03T04:39:41.756Z,102603.97
2023-05-03T04:42:09.009Z,102598.69
2023-05-03T04:44:35.912Z,102601.25
2023-05-03T04:47:02.810Z,102603.63
2023-05-03T04:49:29.555Z,102609.28
2023-05-03T04:51:56.499Z,102610.88
2023-05-03T04:54:24.610Z,102605.81
2023-05-03T04:56:51.666Z,102603.88
2023-05-03T04:59:19.481Z,102616.94
2023-05-03T05:01:51.424Z,102606.72
2023-05-03T05:04:19.738Z,102618.63
2023-05-03T05:06:46.485Z,102621.16
2023-05-03T05:09:28.678Z,102624.47
2023-05-03T05:11:57.289Z,102621.22
2023-05-03T05:14:24.265Z,102624.59
2023-05-03T05:16:51.115Z,102617.59
2023-05-03T05:19:17.870Z,102622.41
2023-05-03T05:21:44.548Z,102628.06
2023-05-03T05:24:12.392Z,102627.16
2023-05-03T05:26:39.111Z,102634.00
2023-05-03T05:29:06.364Z,102630.31
2023-05-03T05:31:33.118Z,102628.91
2023-05-03T05:34:00.610Z,102636.91
2023-05-03T05:36:29.294Z,102634.81
2023-05-03T05:38:55.974Z,102647.78
2023-05-03T05:41:22.642Z,102651.47
2023-05-03T05:43:49.767Z,102650.31
2023-05-03T05:46:16.920Z,102656.72
2023-05-03T05:48:43.591Z,102658.66
2023-05-03T05:51:10.200Z,102661.09
2023-05-03T05:53:37.749Z,102663.53
2023-05-03T05:56:06.808Z,102645.69
2023-05-03T05:58:33.466Z,102668.59
2023-05-03T06:01:03.894Z,102669.78
2023-05-03T06:03:31.831Z,102664.75
2023-05-03T06:05:58.863Z,102669.78
2023-05-03T06:08:25.907Z,102669.63
2023-05-03T06:10:53.952Z,102663.59
2023-05-03T06:13:20.912Z,102666.44
2023-05-03T06:15:47.763Z,102661.41
2023-05-03T06:18:19.201Z,102664.91
2023-05-03T06:20:51.436Z,102662.06
2023-05-03T06:23:18.920Z,102670.41
2023-05-03T06:25:48.781Z,102652.75
2023-05-03T06:28:16.588Z,102673.56
2023-05-03T06:30:52.197Z,102679.41
2023-05-03T06:33:18.976Z,102686.97
2023-05-03T06:35:47.279Z,102676.91
2023-05-03T06:38:14.142Z,102680.78
2023-05-03T06:40:41.496Z,102665.94
2023-05-03T06:43:08.262Z,102676.09
2023-05-03T06:45:35.413Z,102679.81
2023-05-03T06:48:02.099Z,102678.81
2023-05-03T06:50:28.781Z,102677.38
2023-05-03T06:52:56.650Z,102681.59
2023-05-03T06:55:23.535Z,102687.16
2023-05-03T06:57:52.861Z,102679.72
2023-05-03T07:00:21.622Z,102690.47
2023-05-03T07:02:48.697Z,102696.00
2023-05-03T07:05:18.849Z,102695.00
2023-05-03T07:07:46.264Z,102700.28
2023-05-03T07:10:12.871Z,102679.34
2023-05-03T07:12:39.616Z,102696.69
2023-05-03T07:15:07.090Z,102692.84
2023-05-03T07:17:34.028Z,102696.59
2023-05-03T07:20:00.716Z,102701.91
2023-05-03T07:22:28.452Z,102702.78
2023-05-03T07:24:58.915Z,102693.47
2023-05-03T07:27:27.796Z,102692.69
2023-05-03T07:29:54.805Z,102691.91
2023-05-03T07:32:24.569Z,102687.63
2023-05-03T07:34:51.627Z,102702.91
2023-05-03T07:37:18.500Z,102695.69
2023-05-03T07:39:45.859Z,102698.56
2023-05-03T07:42:12.514Z,102688.91
2023-05-03T07:44:39.519Z,102688.19
2023-05-03T07:47:08.483Z,102691.19
2023-05-03T07:49:37.960Z,102684.69
2023-05-03T07:52:04.630Z,102692.59
2023-05-03T07:54:31.334Z,102695.56
2023-05-03T07:56:58.983Z,102687.59
2023-05-03T07:59:25.515Z,102697.97
2023-05-03T08:01:52.536Z,102702.69
2023-05-03T08:04:19.343Z,102697.19
2023-05-03T08:06:46.377Z,102699.91
2023-05-03T08:09:14.112Z,102702.50
2023-05-03T08:11:43.213Z,102699.19
2023-05-03T08:14:10.703Z,102702.69
2023-05-03T08:16:37.998Z,102714.66
2023-05-03T08:19:05.002Z,102716.16
2023-05-03T08:21:33.502Z,102719.94
2023-05-03T08:24:01.138Z,102717.94
2023-05-03T08:26:29.869Z,102722.31
2023-05-03T08:28:56.777Z,102701.97
2023-05-03T08:31:24.699Z,102701.97
2023-05-03T08:33:52.432Z,102717.50
2023-05-03T08:36:19.039Z,102718.75
2023-05-03T08:38:46.058Z,102710.13
2023-05-03T08:41:21.693Z,102705.66
2023-05-03T08:43:52.716Z,102710.41
2023-05-03T08:46:19.550Z,102715.13
2023-05-03T08:48:49.408Z,102725.44
2023-05-03T08:51:21.792Z,102731.47
2023-05-03T08:53:48.998Z,102720.88
2023-05-03T08:56:33.398Z,102722.75
2023-05-03T08:59:07.585Z,102727.94
2023-05-03T09:01:35.937Z,102725.41
2023-05-03T09:04:04.284Z,102733.66
2023-05-03T09:06:33.275Z,102715.78
2023-05-03T09:09:01.240Z,102738.19
2023-05-03T09:11:32.486Z,102721.94
2023-05-03T09:14:21.321Z,102737.94
2023-05-03T09:16:48.467Z,102737.19
2023-05-03T09:19:16.150Z,102743.97
2023-05-03T09:21:50.685Z,102745.00
2023-05-03T09:24:20.561Z,102758.75
2023-05-03T09:26:51.067Z,102760.84
2023-05-03T09:29:32.509Z,102740.63
2023-05-03T09:32:02.766Z,102767.03
2023-05-03T09:34:31.717Z,102778.69
2023-05-03T09:37:00.389Z,102750.63
2023-05-03T09:39:27.314Z,102777.13
2023-05-03T09:41:54.495Z,102775.75
2023-05-03T09:47:22.013Z,102779.84
2023-05-03T09:49:49.912Z,102788.31
2023-05-03T09:52:16.643Z,102784.06
2023-05-03T09:54:50.986Z,102761.69
2023-05-03T09:57:18.727Z,102752.97
2023-05-03T09:59:47.713Z,102755.22
2023-05-03T10:02:17.377Z,102760.59
2023-05-03T10:04:51.625Z,102756.47
2023-05-03T10:07:28.445Z,102761.91
2023-05-03T10:10:03.895Z,102753.78
2023-05-03T10:12:30.708Z,102755.25
2023-05-03T10:15:01.372Z,102754.13
2023-05-03T10:17:47.680Z,102748.97
2023-05-03T10:20:20.876Z,102758.72
2023-05-03T10:23:14.386Z,102756.06
2023-05-03T10:26:07.157Z,102753.00
2023-05-03T10:28:34.398Z,102746.25
2023-05-03T10:31:02.110Z,102748.78
2023-05-03T10:33:32.727Z,102756.25
2023-05-03T10:36:01.390Z,102753.03
2023-05-03T10:38:29.585Z,102758.78
2023-05-03T10:40:56.926Z,102755.38
2023-05-03T10:43:32.525Z,102761.81
2023-05-03T10:45:59.669Z,102759.78
2023-05-03T10:48:28.558Z,102756.03
2023-05-03T10:50:56.544Z,102758.44
2023-05-03T10:53:39.363Z,102758.75
2023-05-03T10:56:12.260Z,102758.44
2023-05-03T10:58:47.705Z,102749.31
2023-05-03T11:01:17.178Z,102753.00
2023-05-03T11:03:50.046Z,102746.44
2023-05-03T11:06:37.230Z,102751.69
2023-05-03T11:09:06.750Z,102755.53
2023-05-03T11:14:04.027Z,102749.88
2023-05-03T11:16:32.328Z,102744.31
2023-05-03T11:18:59.491Z,102750.34
2023-05-03T11:21:27.320Z,102758.34
2023-05-03T11:23:53.954Z,102748.03
2023-05-03T11:26:26.469Z,102764.63
2023-05-03T11:28:54.210Z,102738.81
2023-05-03T11:31:21.387Z,102761.22
2023-05-03T11:33:49.931Z,102762.44
2023-05-03T11:36:16.977Z,102758.38
2023-05-03T11:38:45.195Z,102752.25
2023-05-03T11:41:17.449Z,102744.38
2023-05-03T11:43:45.580Z,102757.31
2023-05-03T11:46:14.762Z,102737.75
2023-05-03T11:48:44.130Z,102752.63
2023-05-03T11:51:11.943Z,102750.41
2023-05-03T11:53:42.856Z,102744.28
2023-05-03T11:56:21.934Z,102738.44
2023-05-03T11:58:57.530Z,102739.13
2023-05-03T12:01:26.498Z,102737.34
2023-05-03T12:04:02.466Z,102744.19
2023-05-03T12:06:34.221Z,102748.53
2023-05-03T12:09:03.950Z,102748.31
2023-05-03T12:11:33.533Z,102747.97
2023-05-03T12:14:03.103Z,102750.09
2023-05-03T12:16:47.482Z,102746.50
2023-05-03T12:19:34.841Z,102729.38
2023-05-03T12:22:23.638Z,102754.84
2023-05-03T12:25:00.351Z,102746.16
2023-05-03T12:27:32.555Z,102741.56
2023-05-03T12:30:01.384Z,102747.34
2023-05-03T12:32:28.590Z,102744.75
2023-05-03T12:35:01.881Z,102747.56
2023-05-03T12:37:33.178Z,102755.16
2023-05-03T12:40:18.694Z,102720.91
2023-05-03T12:42:49.408Z,102755.47
2023-05-03T12:45:16.449Z,102743.97
2023-05-03T12:47:48.985Z,102741.06
2023-05-03T12:50:18.773Z,102731.59
2023-05-03T12:52:46.126Z,102743.81
2023-05-03T12:55:18.181Z,102737.13
2023-05-03T12:58:10.335Z,102731.59
2023-05-03T13:00:39.012Z,102733.13
2023-05-03T13:03:19.544Z,102728.44
2023-05-03T13:05:50.985Z,102723.72
2023-05-03T13:08:22.784Z,102721.38
2023-05-03T13:10:50.784Z,102715.31
2023-05-03T13:13:17.439Z,102716.75
2023-05-03T13:15:45.725Z,102706.78
2023-05-03T13:18:14.698Z,102710.19
2023-05-03T13:20:42.435Z,102713.00
2023-05-03T13:23:09.233Z,102699.53
2023-05-03T13:25:35.965Z,102704.00
2023-05-03T13:28:03.036Z,102695.13
2023-05-03T13:30:30.736Z,102699.34
2023-05-03T13:32:57.315Z,102696.78
2023-05-03T13:35:25.795Z,102650.44
2023-05-03T13:37:53.326Z,102694.66
2023-05-03T13:40:24.723Z,102704.53
2023-05-03T13:42:51.847Z,102699.34
2023-05-03T13:45:19.369Z,102701.63
2023-05-03T13:50:15.935Z,102700.84
2023-05-03T13:52:44.807Z,102693.28
2023-05-03T13:55:11.689Z,102695.03
2023-05-03T13:57:38.332Z,102681.59
2023-05-03T14:00:07.203Z,102687.31
2023-05-03T14:02:34.493Z,102686.53
2023-05-03T14:05:05.939Z,102688.97
2023-05-03T14:07:32.782Z,102674.88
2023-05-03T14:10:00.651Z,102685.63
2023-05-03T14:12:27.833Z,102684.41
2023-05-03T14:14:55.342Z,102685.06
2023-05-03T14:17:21.974Z,102688.63
2023-05-03T14:19:51.024Z,102679.75
2023-05-03T14:22:17.639Z,102677.50
2023-05-03T14:24:44.291Z,102676.06
2023-05-03T14:27:13.318Z,102685.56
2023-05-03T14:29:40.319Z,102679.91
2023-05-03T14:32:07.078Z,102682.47
2023-05-03T14:34:33.719Z,102674.25
2023-05-03T14:37:00.412Z,102669.75
2023-05-03T14:39:27.366Z,102677.69
2023-05-03T14:41:55.835Z,102675.19
2023-05-03T14:44:23.217Z,102674.13
2023-05-03T14:46:59.236Z,102678.16
2023-05-03T14:49:26.562Z,102669.69
2023-05-03T14:51:53.430Z,102667.38
2023-05-03T14:54:26.128Z,102668.38
2023-05-03T14:56:54.803Z,102672.34
2023-05-03T14:59:21.475Z,102663.25
2023-05-03T15:01:48.140Z,102656.84
2023-05-03T15:04:15.767Z,102668.88
2023-05-03T15:06:42.962Z,102663.75
2023-05-03T15:09:12.062Z,102669.53
2023-05-03T15:11:41.490Z,102674.41
2023-05-03T15:14:10.219Z,102680.56
2023-05-03T15:16:37.641Z,102663.25
2023-05-03T15:19:04.922Z,102674.97
2023-05-03T15:21:31.722Z,102678.38
2023-05-03T15:23:58.363Z,102666.56
2023-05-03T15:26:25.289Z,102670.34
2023-05-03T15:28:52.106Z,102651.75
2023-05-03T15:31:22.390Z,102678.91
2023-05-03T15:33:49.293Z,102675.69
2023-05-03T15:36:16.937Z,102667.06
2023-05-03T15:38:44.059Z,102653.94
2023-05-03T15:41:10.714Z,102669.34
2023-05-03T15:43:37.533Z,102668.50
2023-05-03T15:46:05.483Z,102664.53
2023-05-03T15:48:32.127Z,102668.28
2023-05-03T15:50:59.716Z,102658.44
2023-05-03T15:53:27.065Z,102660.75
2023-05-03T15:55:58.032Z,102653.25
2023-05-03T15:58:25.892Z,102642.72
2023-05-03T16:00:52.560Z,102653.94
2023-05-03T16:03:19.552Z,102650.72
2023-05-03T16:05:46.866Z,102655.28
2023-05-03T16:08:13.670Z,102648.03
2023-05-03T16:10:40.452Z,102644.66
2023-05-03T16:13:08.763Z,102653.69
2023-05-03T16:15:38.984Z,102649.09
2023-05-03T16:18:06.235Z,102647.44
2023-05-03T16:20:32.875Z,102645.94
2023-05-03T16:22:59.452Z,102634.50
2023-05-03T16:25:26.560Z,102647.44
2023-05-03T16:27:53.217Z,102648.69
2023-05-03T16:30:20.132Z,102646.38
2023-05-03T16:32:48.281Z,102641.53
2023-05-03T16:35:15.163Z,102643.69
2023-05-03T16:37:43.612Z,102638.16
2023-05-03T16:40:11.494Z,102632.03
2023-05-03T16:42:40.536Z,102636.97
2023-05-03T16:45:11.532Z,102623.84
2023-05-03T16:47:38.680Z,102633.97
2023-05-03T16:50:08.020Z,102632.25
2023-05-03T16:52:39.735Z,102622.75
2023-05-03T16:55:10.917Z,102629.78
2023-05-03T16:57:38.628Z,102619.69
2023-05-03T17:00:10.165Z,102628.53
2023-05-03T17:02:38.554Z,102619.06
2023-05-03T17:05:06.459Z,102624.25
2023-05-03T17:07:35.660Z,102602.94
2023-05-03T17:10:03.592Z,102607.28
2023-05-03T17:12:31.774Z,102621.03
2023-05-03T17:14:59.386Z,102622.88
2023-05-03T17:17:28.475Z,102622.41
2023-05-03T17:19:55.368Z,102613.19
2023-05-03T17:22:23.001Z,102618.28
2023-05-03T17:24:49.836Z,102616.09
2023-05-03T17:27:16.515Z,102596.00
2023-05-03T17:29:43.172Z,102618.91
2023-05-03T17:32:09.822Z,102602.09
2023-05-03T17:34:37.412Z,102602.84
2023-05-03T17:37:04.057Z,102608.50
2023-05-03T17:39:30.992Z,102604.41
2023-05-03T17:41:57.948Z,102559.63
2023-05-03T17:44:24.602Z,102603.94
2023-05-03T17:46:51.676Z,102584.34
2023-05-03T17:49:22.205Z,102602.16
2023-05-03T17:51:49.797Z,102610.78
2023-05-03T17:54:16.492Z,102607.88
2023-05-03T17:56:45.849Z,102613.88
2023-05-03T17:59:12.470Z,102607.13
2023-05-03T18:01:39.063Z,102611.41
2023-05-03T18:04:05.837Z,102607.50
2023-05-03T18:06:32.605Z,102598.69
2023-05-03T18:08:59.264Z,102595.31
2023-05-03T18:11:25.979Z,102606.47
2023-05-03T18:13:53.512Z,102600.38
2023-05-03T18:16:20.239Z,102595.53
2023-05-03T18:18:46.823Z,102599.50
2023-05-03T18:21:13.912Z,102598.69
2023-05-03T18:23:42.377Z,102586.97
2023-05-03T18:26:10.570Z,102593.28
2023-05-03T18:28:37.705Z,102593.72
2023-05-03T18:31:04.451Z,102599.38
2023-05-03T18:33:32.938Z,102598.63
2023-05-03T18:35:59.452Z,102599.47
2023-05-03T18:38:26.311Z,102608.69
2023-05-03T18:40:54.815Z,102582.69
2023-05-03T18:43:22.430Z,102607.94
2023-05-03T18:45:52.203Z,102612.41
2023-05-03T18:48:21.314Z,102605.38
2023-05-03T18:50:49.373Z,102604.41
2023-05-03T18:53:17.439Z,102613.78
2023-05-03T18:55:45.101Z,102614.34
2023-05-03T18:58:11.656Z,102615.88
2023-05-03T19:00:39.413Z,102593.16
2023-05-03T19:03:06.413Z,102620.19
2023-05-03T19:05:34.912Z,102626.56
2023-05-03T19:08:01.505Z,102623.34
2023-05-03T19:10:28.219Z,102622.88
2023-05-03T19:12:54.840Z,102626.16
2023-05-03T19:15:22.553Z,102623.44
2023-05-03T19:17:49.275Z,102627.78
2023-05-03T19:20:16.393Z,102619.78
2023-05-03T19:22:43.987Z,102624.25
2023-05-03T19:25:10.818Z,102619.34
2023-05-03T19:27:39.694Z,102628.50
2023-05-03T19:30:07.275Z,102633.25
2023-05-03T19:32:39.098Z,102632.16
2023-05-03T19:35:08.774Z,102634.75
2023-05-03T19:37:35.699Z,102627.53
2023-05-03T19:40:02.615Z,102636.81
2023-05-03T19:42:29.854Z,102634.09
2023-05-03T19:44:56.489Z,102637.09
2023-05-03T19:47:23.664Z,102631.78
2023-05-03T19:49:50.529Z,102635.34
2023-05-03T19:52:17.415Z,102630.72
2023-05-03T19:54:44.290Z,102632.81
2023-05-03T19:57:11.962Z,102634.91
2023-05-03T19:59:38.590Z,102624.88
2023-05-03T20:02:05.722Z,102631.19
2023-05-03T20:04:32.886Z,102636.00
2023-05-03T20:07:00.899Z,102635.56
2023-05-03T20:09:30.883Z,102647.28
2023-05-03T20:11:58.858Z,102645.22
2023-05-03T20:14:29.100Z,102642.78
2023-05-03T20:16:58.271Z,102647.66
2023-05-03T20:19:26.137Z,102638.75
2023-05-03T20:21:52.929Z,102652.28
2023-05-03T20:24:23.112Z,102650.66
2023-05-03T20:26:50.467Z,102644.69
2023-05-03T20:29:18.209Z,102635.31
2023-05-03T20:31:47.415Z,102648.97
2023-05-03T20:34:15.001Z,102654.13
2023-05-03T20:36:41.722Z,102652.16
2023-05-03T20:39:09.702Z,102644.72
2023-05-03T20:41:36.420Z,102645.66
2023-05-03T20:44:04.131Z,102649.28
2023-05-03T20:46:30.968Z,102639.16
2023-05-03T20:49:01.658Z,102657.16
2023-05-03T20:51:28.203Z,102650.88
2023-05-03T20:53:54.834Z,102654.06
2023-05-03T20:56:22.410Z,102634.97
2023-05-03T20:58:50.622Z,102647.41
2023-05-03T21:01:17.871Z,102648.13
2023-05-03T21:03:44.619Z,102644.72
2023-05-03T21:06:11.179Z,102649.22
2023-05-03T21:08:37.829Z,102647.53
2023-05-03T21:11:04.452Z,102638.84
2023-05-03T21:13:31.213Z,102640.63
2023-05-03T21:15:57.967Z,102598.50
2023-05-03T21:18:25.022Z,102613.66
2023-05-03T21:20:53.576Z,102626.25
2023-05-03T21:23:20.405Z,102627.28
2023-05-03T21:25:46.962Z,102638.44
2023-05-03T21:28:13.571Z,102634.59
2023-05-03T21:30:42.240Z,102642.63
2023-05-03T21:33:08.950Z,102634.00
2023-05-03T21:35:35.667Z,102632.69
2023-05-03T21:38:02.240Z,102634.66
2023-05-03T21:40:28.924Z,102625.50
2023-05-03T21:42:55.606Z,102636.97
2023-05-03T21:45:23.241Z,102633.56
2023-05-03T21:47:50.348Z,102614.63
2023-05-03T21:50:16.974Z,102630.75
2023-05-03T21:52:43.933Z,102623.38
2023-05-03T21:55:10.606Z,102621.19
2023-05-03T21:57:37.945Z,102624.88
2023-05-03T22:00:05.790Z,102616.75
2023-05-03T22:02:32.729Z,102625.66
2023-05-03T22:04:59.409Z,102622.63
2023-05-03T22:07:26.124Z,102616.13
2023-05-03T22:09:52.832Z,102610.38
2023-05-03T22:12:23.910Z,102621.25
2023-05-03T22:14:51.196Z,102613.66
2023-05-03T22:17:18.000Z,102617.00
2023-05-03T22:19:44.803Z,102617.97
2023-05-03T22:22:11.548Z,102614.41
2023-05-03T22:24:38.223Z,102618.25
2023-05-03T22:27:04.818Z,102613.94
2023-05-03T22:29:31.649Z,102617.38
2023-05-03T22:31:59.005Z,102623.94
2023-05-03T22:34:25.691Z,102612.50
2023-05-03T22:36:52.261Z,102621.03
2023-05-03T22:39:18.967Z,102616.78
2023-05-03T22:41:46.061Z,102617.41
2023-05-03T22:44:13.205Z,102617.41
2023-05-03T22:46:39.992Z,102608.34
2023-05-03T22:49:07.423Z,102608.66
2023-05-03T22:51:34.113Z,102622.22
2023-05-03T22:54:00.945Z,102608.09
2023-05-03T22:56:27.501Z,102614.41
2023-05-03T22:58:54.115Z,102613.72
2023-05-03T23:01:20.852Z,102617.97
2023-05-03T23:03:47.655Z,102562.56
2023-05-03T23:06:14.951Z,102622.28
2023-05-03T23:08:41.589Z,102612.97
2023-05-03T23:11:08.353Z,102601.75
2023-05-03T23:13:35.378Z,102614.84
2023-05-03T23:16:02.259Z,102617.50
2023-05-03T23:18:29.107Z,102616.59
2023-05-03T23:20:55.776Z,102617.19
2023-05-03T23:23:22.395Z,102614.19
2023-05-03T23:25:49.078Z,102610.81
2023-05-03T23:28:15.794Z,102612.25
2023-05-03T23:30:44.287Z,102602.00
2023-05-03T23:33:11.400Z,102597.69
2023-05-03T23:35:38.588Z,102600.34
2023-05-03T23:38:05.254Z,102596.78
2023-05-03T23:40:32.018Z,102593.97
2023-05-03T23:42:58.628Z,102579.22
2023-05-03T23:45:27.044Z,102593.56
2023-05-03T23:47:53.942Z,102582.84
2023-05-03T23:50:20.763Z,102586.88
2023-05-03T23:52:47.685Z,102589.34
2023-05-03T23:55:14.556Z,102587.22
2023-05-03T23:57:41.442Z,102578.97
